sensor_id;sensor_type;location;lat;lon;timestamp;P1;durP1;ratioP1;P2;durP2;ratioP2
21979;SDS011;11154;48.558;9.234;2022-09-30T00:00:32;4.38;;;3.38;;
21979;SDS011;11154;48.558;9.234;2022-09-30T00:02:35;5.63;;;3.65;;
21979;SDS011;11154;48.558;9.234;2022-09-30T00:04:37;6.65;;;3.30;;
21979;SDS011;11154;48.558;9.234;2022-09-30T00:06:39;7.10;;;3.80;;
21979;SDS011;11154;48.558;9.234;2022-09-30T00:08:40;5.07;;;3.30;;
21979;SDS011;11154;48.558;9.234;2022-09-30T00:10:42;6.18;;;3.10;;
21979;SDS011;11154;48.558;9.234;2022-09-30T00:12:44;6.95;;;3.85;;
21979;SDS011;11154;48.558;9.234;2022-09-30T00:14:45;6.18;;;3.75;;
21979;SDS011;11154;48.558;9.234;2022-09-30T00:16:47;5.25;;;3.53;;
21979;SDS011;11154;48.558;9.234;2022-09-30T00:18:52;5.55;;;3.75;;
21979;SDS011;11154;48.558;9.234;2022-09-30T00:20:54;6.43;;;3.28;;
21979;SDS011;11154;48.558;9.234;2022-09-30T00:22:56;4.55;;;2.88;;
21979;SDS011;11154;48.558;9.234;2022-09-30T00:24:58;5.30;;;3.35;;
21979;SDS011;11154;48.558;9.234;2022-09-30T00:27:00;4.90;;;3.40;;
21979;SDS011;11154;48.558;9.234;2022-09-30T00:29:01;4.97;;;3.05;;
21979;SDS011;11154;48.558;9.234;2022-09-30T00:31:04;4.32;;;2.95;;
21979;SDS011;11154;48.558;9.234;2022-09-30T00:33:08;4.63;;;3.28;;
21979;SDS011;11154;48.558;9.234;2022-09-30T00:35:11;5.97;;;3.55;;
21979;SDS011;11154;48.558;9.234;2022-09-30T00:37:13;5.32;;;3.97;;
21979;SDS011;11154;48.558;9.234;2022-09-30T00:39:16;7.15;;;4.10;;
21979;SDS011;11154;48.558;9.234;2022-09-30T00:41:20;3.70;;;3.22;;
21979;SDS011;11154;48.558;9.234;2022-09-30T00:43:37;6.35;;;4.25;;
21979;SDS011;11154;48.558;9.234;2022-09-30T00:45:41;5.00;;;3.90;;
21979;SDS011;11154;48.558;9.234;2022-09-30T00:47:50;5.63;;;4.20;;
21979;SDS011;11154;48.558;9.234;2022-09-30T00:49:54;4.90;;;4.05;;
21979;SDS011;11154;48.558;9.234;2022-09-30T00:52:00;3.90;;;3.03;;
21979;SDS011;11154;48.558;9.234;2022-09-30T00:54:02;6.43;;;3.03;;
21979;SDS011;11154;48.558;9.234;2022-09-30T00:56:09;4.07;;;2.47;;
21979;SDS011;11154;48.558;9.234;2022-09-30T00:58:15;4.50;;;2.90;;
21979;SDS011;11154;48.558;9.234;2022-09-30T01:00:20;5.30;;;3.17;;
21979;SDS011;11154;48.558;9.234;2022-09-30T01:02:22;3.58;;;3.20;;
21979;SDS011;11154;48.558;9.234;2022-09-30T01:04:24;4.20;;;3.53;;
21979;SDS011;11154;48.558;9.234;2022-09-30T01:06:28;3.85;;;2.97;;
21979;SDS011;11154;48.558;9.234;2022-09-30T01:08:32;9.35;;;6.50;;
21979;SDS011;11154;48.558;9.234;2022-09-30T01:10:37;6.28;;;4.50;;
21979;SDS011;11154;48.558;9.234;2022-09-30T01:12:39;6.18;;;4.90;;
21979;SDS011;11154;48.558;9.234;2022-09-30T01:14:40;8.30;;;5.63;;
21979;SDS011;11154;48.558;9.234;2022-09-30T01:16:47;10.15;;;5.93;;
21979;SDS011;11154;48.558;9.234;2022-09-30T01:19:04;8.85;;;6.55;;
21979;SDS011;11154;48.558;9.234;2022-09-30T01:21:32;5.90;;;4.60;;
21979;SDS011;11154;48.558;9.234;2022-09-30T01:23:57;9.20;;;5.05;;
21979;SDS011;11154;48.558;9.234;2022-09-30T01:26:20;8.15;;;5.00;;
21979;SDS011;11154;48.558;9.234;2022-09-30T01:28:50;6.03;;;4.68;;
21979;SDS011;11154;48.558;9.234;2022-09-30T01:31:13;6.10;;;4.82;;
21979;SDS011;11154;48.558;9.234;2022-09-30T01:33:26;7.40;;;4.07;;
21979;SDS011;11154;48.558;9.234;2022-09-30T01:35:50;6.18;;;3.58;;
21979;SDS011;11154;48.558;9.234;2022-09-30T01:38:08;4.93;;;3.78;;
21979;SDS011;11154;48.558;9.234;2022-09-30T01:40:14;4.35;;;3.63;;
21979;SDS011;11154;48.558;9.234;2022-09-30T01:42:23;4.55;;;3.70;;
21979;SDS011;11154;48.558;9.234;2022-09-30T01:44:31;4.78;;;3.58;;
21979;SDS011;11154;48.558;9.234;2022-09-30T01:46:38;4.80;;;4.10;;
21979;SDS011;11154;48.558;9.234;2022-09-30T01:48:45;5.78;;;3.28;;
21979;SDS011;11154;48.558;9.234;2022-09-30T01:50:55;4.30;;;3.00;;
21979;SDS011;11154;48.558;9.234;2022-09-30T01:53:05;4.55;;;3.45;;
21979;SDS011;11154;48.558;9.234;2022-09-30T01:55:12;3.60;;;2.80;;
21979;SDS011;11154;48.558;9.234;2022-09-30T01:57:21;3.20;;;2.90;;
21979;SDS011;11154;48.558;9.234;2022-09-30T01:59:28;3.00;;;2.70;;
21979;SDS011;11154;48.558;9.234;2022-09-30T02:01:34;4.05;;;3.15;;
21979;SDS011;11154;48.558;9.234;2022-09-30T02:03:42;2.95;;;2.63;;
21979;SDS011;11154;48.558;9.234;2022-09-30T02:05:49;3.92;;;2.50;;
21979;SDS011;11154;48.558;9.234;2022-09-30T02:07:57;2.70;;;2.13;;
21979;SDS011;11154;48.558;9.234;2022-09-30T02:10:05;3.03;;;2.20;;
21979;SDS011;11154;48.558;9.234;2022-09-30T02:12:13;2.10;;;1.90;;
21979;SDS011;11154;48.558;9.234;2022-09-30T02:14:20;3.05;;;2.38;;
21979;SDS011;11154;48.558;9.234;2022-09-30T02:16:30;2.10;;;1.90;;
21979;SDS011;11154;48.558;9.234;2022-09-30T02:18:41;2.95;;;2.13;;
21979;SDS011;11154;48.558;9.234;2022-09-30T02:20:48;5.55;;;5.05;;
21979;SDS011;11154;48.558;9.234;2022-09-30T02:22:56;3.38;;;3.03;;
21979;SDS011;11154;48.558;9.234;2022-09-30T02:25:02;3.90;;;3.38;;
21979;SDS011;11154;48.558;9.234;2022-09-30T02:27:07;4.43;;;3.85;;
21979;SDS011;11154;48.558;9.234;2022-09-30T02:29:12;4.30;;;3.30;;
21979;SDS011;11154;48.558;9.234;2022-09-30T02:31:20;3.83;;;3.42;;
21979;SDS011;11154;48.558;9.234;2022-09-30T02:33:24;4.90;;;3.92;;
21979;SDS011;11154;48.558;9.234;2022-09-30T02:35:34;8.35;;;5.22;;
21979;SDS011;11154;48.558;9.234;2022-09-30T02:37:39;7.75;;;5.97;;
21979;SDS011;11154;48.558;9.234;2022-09-30T02:39:45;5.80;;;4.38;;
21979;SDS011;11154;48.558;9.234;2022-09-30T02:41:51;5.28;;;4.53;;
21979;SDS011;11154;48.558;9.234;2022-09-30T02:43:58;4.63;;;4.00;;
21979;SDS011;11154;48.558;9.234;2022-09-30T02:46:04;5.13;;;4.05;;
21979;SDS011;11154;48.558;9.234;2022-09-30T02:48:11;3.70;;;3.40;;
21979;SDS011;11154;48.558;9.234;2022-09-30T02:50:25;3.10;;;2.80;;
21979;SDS011;11154;48.558;9.234;2022-09-30T02:52:38;3.50;;;2.90;;
21979;SDS011;11154;48.558;9.234;2022-09-30T02:54:49;3.28;;;2.88;;
21979;SDS011;11154;48.558;9.234;2022-09-30T02:57:02;3.70;;;3.40;;
21979;SDS011;11154;48.558;9.234;2022-09-30T02:59:14;3.35;;;3.00;;
21979;SDS011;11154;48.558;9.234;2022-09-30T03:01:16;3.67;;;2.90;;
21979;SDS011;11154;48.558;9.234;2022-09-30T03:03:19;3.35;;;3.00;;
21979;SDS011;11154;48.558;9.234;2022-09-30T03:05:24;3.40;;;3.08;;
21979;SDS011;11154;48.558;9.234;2022-09-30T03:07:27;3.58;;;3.00;;
21979;SDS011;11154;48.558;9.234;2022-09-30T03:09:33;3.70;;;3.25;;
21979;SDS011;11154;48.558;9.234;2022-09-30T03:11:35;3.78;;;3.45;;
21979;SDS011;11154;48.558;9.234;2022-09-30T03:13:54;4.32;;;3.30;;
21979;SDS011;11154;48.558;9.234;2022-09-30T03:16:25;3.90;;;3.33;;
21979;SDS011;11154;48.558;9.234;2022-09-30T03:18:42;4.28;;;2.90;;
21979;SDS011;11154;48.558;9.234;2022-09-30T03:20:58;4.55;;;3.13;;
21979;SDS011;11154;48.558;9.234;2022-09-30T03:23:13;3.60;;;2.95;;
21979;SDS011;11154;48.558;9.234;2022-09-30T03:25:27;3.83;;;3.30;;
21979;SDS011;11154;48.558;9.234;2022-09-30T03:27:38;4.05;;;3.45;;
21979;SDS011;11154;48.558;9.234;2022-09-30T03:29:46;4.20;;;3.10;;
21979;SDS011;11154;48.558;9.234;2022-09-30T03:32:01;3.00;;;2.45;;
21979;SDS011;11154;48.558;9.234;2022-09-30T03:34:12;3.78;;;3.25;;
21979;SDS011;11154;48.558;9.234;2022-09-30T03:36:23;5.65;;;3.30;;
21979;SDS011;11154;48.558;9.234;2022-09-30T03:38:31;2.75;;;2.33;;
21979;SDS011;11154;48.558;9.234;2022-09-30T03:40:41;2.50;;;2.30;;
21979;SDS011;11154;48.558;9.234;2022-09-30T03:42:54;1.63;;;1.52;;
21979;SDS011;11154;48.558;9.234;2022-09-30T03:45:04;1.95;;;1.75;;
21979;SDS011;11154;48.558;9.234;2022-09-30T03:47:12;2.72;;;2.08;;
21979;SDS011;11154;48.558;9.234;2022-09-30T03:49:18;3.47;;;2.50;;
21979;SDS011;11154;48.558;9.234;2022-09-30T03:51:23;3.95;;;2.63;;
21979;SDS011;11154;48.558;9.234;2022-09-30T03:53:25;3.60;;;2.63;;
21979;SDS011;11154;48.558;9.234;2022-09-30T03:55:27;4.57;;;2.95;;
21979;SDS011;11154;48.558;9.234;2022-09-30T03:57:32;4.45;;;3.08;;
21979;SDS011;11154;48.558;9.234;2022-09-30T03:59:33;4.80;;;3.50;;
21979;SDS011;11154;48.558;9.234;2022-09-30T04:01:35;3.60;;;2.90;;
21979;SDS011;11154;48.558;9.234;2022-09-30T04:03:36;2.92;;;2.63;;
21979;SDS011;11154;48.558;9.234;2022-09-30T04:05:38;5.57;;;2.90;;
21979;SDS011;11154;48.558;9.234;2022-09-30T04:07:40;4.38;;;2.85;;
21979;SDS011;11154;48.558;9.234;2022-09-30T04:09:41;3.85;;;2.53;;
21979;SDS011;11154;48.558;9.234;2022-09-30T04:11:43;3.42;;;2.50;;
21979;SDS011;11154;48.558;9.234;2022-09-30T04:13:46;3.03;;;2.70;;
21979;SDS011;11154;48.558;9.234;2022-09-30T04:15:52;5.72;;;2.40;;
21979;SDS011;11154;48.558;9.234;2022-09-30T04:17:55;4.00;;;2.10;;
21979;SDS011;11154;48.558;9.234;2022-09-30T04:19:56;2.90;;;2.50;;
21979;SDS011;11154;48.558;9.234;2022-09-30T04:21:58;4.72;;;2.38;;
21979;SDS011;11154;48.558;9.234;2022-09-30T04:24:00;3.33;;;2.65;;
21979;SDS011;11154;48.558;9.234;2022-09-30T04:26:02;2.75;;;2.55;;
21979;SDS011;11154;48.558;9.234;2022-09-30T04:28:04;3.20;;;2.67;;
21979;SDS011;11154;48.558;9.234;2022-09-30T04:30:08;4.13;;;2.88;;
21979;SDS011;11154;48.558;9.234;2022-09-30T04:32:10;4.63;;;3.42;;
21979;SDS011;11154;48.558;9.234;2022-09-30T04:34:12;4.28;;;3.22;;
21979;SDS011;11154;48.558;9.234;2022-09-30T04:36:14;4.10;;;3.22;;
21979;SDS011;11154;48.558;9.234;2022-09-30T04:38:15;3.72;;;3.00;;
21979;SDS011;11154;48.558;9.234;2022-09-30T04:40:17;4.07;;;3.05;;
21979;SDS011;11154;48.558;9.234;2022-09-30T04:42:19;3.85;;;3.17;;
21979;SDS011;11154;48.558;9.234;2022-09-30T04:44:20;3.38;;;2.90;;
21979;SDS011;11154;48.558;9.234;2022-09-30T04:46:23;4.07;;;3.05;;
21979;SDS011;11154;48.558;9.234;2022-09-30T04:48:26;2.83;;;2.60;;
21979;SDS011;11154;48.558;9.234;2022-09-30T04:50:30;5.10;;;3.60;;
21979;SDS011;11154;48.558;9.234;2022-09-30T04:52:31;3.42;;;3.03;;
21979;SDS011;11154;48.558;9.234;2022-09-30T04:54:33;2.65;;;2.00;;
21979;SDS011;11154;48.558;9.234;2022-09-30T04:56:35;1.60;;;1.50;;
21979;SDS011;11154;48.558;9.234;2022-09-30T04:58:36;1.60;;;1.50;;
21979;SDS011;11154;48.558;9.234;2022-09-30T05:00:38;3.22;;;2.78;;
21979;SDS011;11154;48.558;9.234;2022-09-30T05:02:42;3.50;;;3.05;;
21979;SDS011;11154;48.558;9.234;2022-09-30T05:04:44;5.82;;;3.22;;
21979;SDS011;11154;48.558;9.234;2022-09-30T05:06:46;3.90;;;3.50;;
21979;SDS011;11154;48.558;9.234;2022-09-30T05:08:48;3.88;;;3.20;;
21979;SDS011;11154;48.558;9.234;2022-09-30T05:10:53;5.25;;;3.92;;
21979;SDS011;11154;48.558;9.234;2022-09-30T05:12:56;6.00;;;4.68;;
21979;SDS011;11154;48.558;9.234;2022-09-30T05:14:58;7.57;;;4.72;;
21979;SDS011;11154;48.558;9.234;2022-09-30T05:16:59;5.97;;;4.22;;
21979;SDS011;11154;48.558;9.234;2022-09-30T05:19:02;4.63;;;3.85;;
21979;SDS011;11154;48.558;9.234;2022-09-30T05:21:04;4.00;;;3.50;;
21979;SDS011;11154;48.558;9.234;2022-09-30T05:23:06;4.15;;;3.40;;
21979;SDS011;11154;48.558;9.234;2022-09-30T05:25:08;5.07;;;4.07;;
21979;SDS011;11154;48.558;9.234;2022-09-30T05:27:10;4.25;;;3.85;;
21979;SDS011;11154;48.558;9.234;2022-09-30T05:29:11;3.70;;;3.35;;
21979;SDS011;11154;48.558;9.234;2022-09-30T05:31:13;4.05;;;3.60;;
21979;SDS011;11154;48.558;9.234;2022-09-30T05:33:15;4.15;;;3.50;;
21979;SDS011;11154;48.558;9.234;2022-09-30T05:35:18;4.53;;;3.78;;
21979;SDS011;11154;48.558;9.234;2022-09-30T05:37:20;4.97;;;4.03;;
21979;SDS011;11154;48.558;9.234;2022-09-30T05:39:22;4.40;;;3.78;;
21979;SDS011;11154;48.558;9.234;2022-09-30T05:41:23;3.83;;;3.42;;
21979;SDS011;11154;48.558;9.234;2022-09-30T05:43:25;4.07;;;3.38;;
21979;SDS011;11154;48.558;9.234;2022-09-30T05:45:27;5.25;;;3.83;;
21979;SDS011;11154;48.558;9.234;2022-09-30T05:47:28;4.70;;;3.60;;
21979;SDS011;11154;48.558;9.234;2022-09-30T05:49:30;4.10;;;3.70;;
21979;SDS011;11154;48.558;9.234;2022-09-30T05:51:35;4.35;;;3.30;;
21979;SDS011;11154;48.558;9.234;2022-09-30T05:53:37;4.05;;;3.65;;
21979;SDS011;11154;48.558;9.234;2022-09-30T05:55:39;3.58;;;3.28;;
21979;SDS011;11154;48.558;9.234;2022-09-30T05:57:46;4.70;;;3.83;;
21979;SDS011;11154;48.558;9.234;2022-09-30T05:59:48;5.88;;;3.83;;
21979;SDS011;11154;48.558;9.234;2022-09-30T06:01:50;6.93;;;4.35;;
21979;SDS011;11154;48.558;9.234;2022-09-30T06:03:52;6.75;;;3.97;;
21979;SDS011;11154;48.558;9.234;2022-09-30T06:05:54;9.18;;;5.88;;
21979;SDS011;11154;48.558;9.234;2022-09-30T06:07:58;13.60;;;6.80;;
21979;SDS011;11154;48.558;9.234;2022-09-30T06:10:00;6.18;;;3.33;;
21979;SDS011;11154;48.558;9.234;2022-09-30T06:12:01;2.72;;;2.53;;
21979;SDS011;11154;48.558;9.234;2022-09-30T06:14:05;4.80;;;3.20;;
21979;SDS011;11154;48.558;9.234;2022-09-30T06:16:07;4.63;;;3.20;;
21979;SDS011;11154;48.558;9.234;2022-09-30T06:18:10;3.45;;;2.92;;
21979;SDS011;11154;48.558;9.234;2022-09-30T06:20:11;5.03;;;3.53;;
21979;SDS011;11154;48.558;9.234;2022-09-30T06:22:13;5.03;;;3.38;;
21979;SDS011;11154;48.558;9.234;2022-09-30T06:24:16;3.75;;;3.13;;
21979;SDS011;11154;48.558;9.234;2022-09-30T06:26:18;4.78;;;3.60;;
21979;SDS011;11154;48.558;9.234;2022-09-30T06:28:20;4.03;;;3.10;;
21979;SDS011;11154;48.558;9.234;2022-09-30T06:30:22;5.40;;;4.00;;
21979;SDS011;11154;48.558;9.234;2022-09-30T06:32:24;5.00;;;3.55;;
21979;SDS011;11154;48.558;9.234;2022-09-30T06:34:25;4.30;;;3.47;;
21979;SDS011;11154;48.558;9.234;2022-09-30T06:36:27;5.50;;;3.55;;
21979;SDS011;11154;48.558;9.234;2022-09-30T06:38:29;6.63;;;3.17;;
21979;SDS011;11154;48.558;9.234;2022-09-30T06:40:32;6.05;;;3.58;;
21979;SDS011;11154;48.558;9.234;2022-09-30T06:42:34;3.42;;;2.53;;
21979;SDS011;11154;48.558;9.234;2022-09-30T06:44:35;4.10;;;2.50;;
21979;SDS011;11154;48.558;9.234;2022-09-30T06:46:37;3.88;;;2.65;;
21979;SDS011;11154;48.558;9.234;2022-09-30T06:48:39;3.70;;;2.72;;
21979;SDS011;11154;48.558;9.234;2022-09-30T06:50:41;5.57;;;3.50;;
21979;SDS011;11154;48.558;9.234;2022-09-30T06:52:42;6.90;;;3.17;;
21979;SDS011;11154;48.558;9.234;2022-09-30T06:54:44;5.35;;;3.45;;
21979;SDS011;11154;48.558;9.234;2022-09-30T06:56:49;5.63;;;3.97;;
21979;SDS011;11154;48.558;9.234;2022-09-30T06:58:52;6.47;;;4.43;;
21979;SDS011;11154;48.558;9.234;2022-09-30T07:00:56;4.93;;;3.28;;
21979;SDS011;11154;48.558;9.234;2022-09-30T07:02:59;5.18;;;3.90;;
21979;SDS011;11154;48.558;9.234;2022-09-30T07:05:01;8.02;;;5.53;;
21979;SDS011;11154;48.558;9.234;2022-09-30T07:07:03;11.20;;;8.32;;
21979;SDS011;11154;48.558;9.234;2022-09-30T07:09:06;21.95;;;15.70;;
21979;SDS011;11154;48.558;9.234;2022-09-30T07:11:09;8.75;;;5.68;;
21979;SDS011;11154;48.558;9.234;2022-09-30T07:13:15;6.38;;;4.63;;
21979;SDS011;11154;48.558;9.234;2022-09-30T07:15:16;5.68;;;4.13;;
21979;SDS011;11154;48.558;9.234;2022-09-30T07:17:22;4.43;;;3.78;;
21979;SDS011;11154;48.558;9.234;2022-09-30T07:19:24;7.00;;;4.40;;
21979;SDS011;11154;48.558;9.234;2022-09-30T07:21:25;5.00;;;3.92;;
21979;SDS011;11154;48.558;9.234;2022-09-30T07:23:29;5.55;;;4.35;;
21979;SDS011;11154;48.558;9.234;2022-09-30T07:25:31;5.50;;;4.20;;
21979;SDS011;11154;48.558;9.234;2022-09-30T07:27:33;15.15;;;9.65;;
21979;SDS011;11154;48.558;9.234;2022-09-30T07:29:35;5.50;;;4.10;;
21979;SDS011;11154;48.558;9.234;2022-09-30T07:31:37;4.45;;;3.85;;
21979;SDS011;11154;48.558;9.234;2022-09-30T07:33:39;6.40;;;3.90;;
21979;SDS011;11154;48.558;9.234;2022-09-30T07:35:48;5.20;;;3.67;;
21979;SDS011;11154;48.558;9.234;2022-09-30T07:37:51;5.72;;;4.00;;
21979;SDS011;11154;48.558;9.234;2022-09-30T07:39:52;7.45;;;4.50;;
21979;SDS011;11154;48.558;9.234;2022-09-30T07:41:54;6.15;;;4.20;;
21979;SDS011;11154;48.558;9.234;2022-09-30T07:43:56;5.45;;;3.90;;
21979;SDS011;11154;48.558;9.234;2022-09-30T07:46:02;6.90;;;4.40;;
21979;SDS011;11154;48.558;9.234;2022-09-30T07:48:05;5.88;;;4.80;;
21979;SDS011;11154;48.558;9.234;2022-09-30T07:50:26;5.07;;;4.10;;
21979;SDS011;11154;48.558;9.234;2022-09-30T07:52:28;6.55;;;4.47;;
21979;SDS011;11154;48.558;9.234;2022-09-30T07:54:30;7.25;;;5.45;;
21979;SDS011;11154;48.558;9.234;2022-09-30T07:56:34;8.52;;;5.72;;
21979;SDS011;11154;48.558;9.234;2022-09-30T07:58:37;7.40;;;6.03;;
21979;SDS011;11154;48.558;9.234;2022-09-30T08:00:39;5.25;;;4.20;;
21979;SDS011;11154;48.558;9.234;2022-09-30T08:02:43;10.30;;;8.10;;
21979;SDS011;11154;48.558;9.234;2022-09-30T08:04:44;6.85;;;4.80;;
21979;SDS011;11154;48.558;9.234;2022-09-30T08:06:47;5.95;;;3.95;;
21979;SDS011;11154;48.558;9.234;2022-09-30T08:08:52;5.78;;;4.25;;
21979;SDS011;11154;48.558;9.234;2022-09-30T08:10:57;5.70;;;4.40;;
21979;SDS011;11154;48.558;9.234;2022-09-30T08:12:59;4.93;;;4.38;;
21979;SDS011;11154;48.558;9.234;2022-09-30T08:15:00;6.03;;;4.30;;
21979;SDS011;11154;48.558;9.234;2022-09-30T08:17:02;6.35;;;4.07;;
21979;SDS011;11154;48.558;9.234;2022-09-30T08:19:05;5.32;;;4.38;;
21979;SDS011;11154;48.558;9.234;2022-09-30T08:21:06;6.03;;;4.70;;
21979;SDS011;11154;48.558;9.234;2022-09-30T08:23:08;4.60;;;4.10;;
21979;SDS011;11154;48.558;9.234;2022-09-30T08:25:10;6.15;;;4.50;;
21979;SDS011;11154;48.558;9.234;2022-09-30T08:27:12;5.82;;;4.65;;
21979;SDS011;11154;48.558;9.234;2022-09-30T08:29:13;6.40;;;4.97;;
21979;SDS011;11154;48.558;9.234;2022-09-30T08:31:15;4.47;;;4.00;;
21979;SDS011;11154;48.558;9.234;2022-09-30T08:33:19;6.40;;;4.63;;
21979;SDS011;11154;48.558;9.234;2022-09-30T08:35:22;7.18;;;6.05;;
21979;SDS011;11154;48.558;9.234;2022-09-30T08:37:24;6.15;;;5.55;;
21979;SDS011;11154;48.558;9.234;2022-09-30T08:39:25;5.85;;;4.85;;
21979;SDS011;11154;48.558;9.234;2022-09-30T08:41:31;5.43;;;4.55;;
21979;SDS011;11154;48.558;9.234;2022-09-30T08:43:52;5.78;;;5.07;;
21979;SDS011;11154;48.558;9.234;2022-09-30T08:46:04;8.35;;;5.35;;
21979;SDS011;11154;48.558;9.234;2022-09-30T08:48:15;7.45;;;5.15;;
21979;SDS011;11154;48.558;9.234;2022-09-30T08:50:29;8.02;;;5.80;;
21979;SDS011;11154;48.558;9.234;2022-09-30T08:52:36;10.75;;;8.25;;
21979;SDS011;11154;48.558;9.234;2022-09-30T08:54:40;11.05;;;9.20;;
21979;SDS011;11154;48.558;9.234;2022-09-30T08:56:46;5.30;;;4.70;;
21979;SDS011;11154;48.558;9.234;2022-09-30T08:58:49;6.65;;;4.75;;
21979;SDS011;11154;48.558;9.234;2022-09-30T09:00:54;5.88;;;5.28;;
21979;SDS011;11154;48.558;9.234;2022-09-30T09:03:01;6.53;;;4.93;;
21979;SDS011;11154;48.558;9.234;2022-09-30T09:05:04;7.88;;;6.20;;
21979;SDS011;11154;48.558;9.234;2022-09-30T09:07:15;9.85;;;5.65;;
21979;SDS011;11154;48.558;9.234;2022-09-30T09:09:35;6.15;;;5.10;;
21979;SDS011;11154;48.558;9.234;2022-09-30T09:11:56;6.63;;;5.22;;
21979;SDS011;11154;48.558;9.234;2022-09-30T09:14:03;7.57;;;5.78;;
21979;SDS011;11154;48.558;9.234;2022-09-30T09:16:15;7.53;;;5.55;;
21979;SDS011;11154;48.558;9.234;2022-09-30T09:20:53;8.02;;;5.60;;
21979;SDS011;11154;48.558;9.234;2022-09-30T09:22:58;6.63;;;5.80;;
21979;SDS011;11154;48.558;9.234;2022-09-30T09:25:02;6.90;;;6.05;;
21979;SDS011;11154;48.558;9.234;2022-09-30T09:27:11;7.60;;;5.60;;
21979;SDS011;11154;48.558;9.234;2022-09-30T09:29:22;7.15;;;5.90;;
21979;SDS011;11154;48.558;9.234;2022-09-30T09:31:32;12.57;;;6.22;;
21979;SDS011;11154;48.558;9.234;2022-09-30T09:33:34;6.80;;;5.57;;
21979;SDS011;11154;48.558;9.234;2022-09-30T09:35:40;7.45;;;5.28;;
21979;SDS011;11154;48.558;9.234;2022-09-30T09:37:49;6.88;;;5.68;;
21979;SDS011;11154;48.558;9.234;2022-09-30T09:40:20;7.60;;;5.40;;
21979;SDS011;11154;48.558;9.234;2022-09-30T09:42:39;7.53;;;5.60;;
21979;SDS011;11154;48.558;9.234;2022-09-30T09:44:51;6.82;;;5.43;;
21979;SDS011;11154;48.558;9.234;2022-09-30T09:47:00;7.10;;;5.80;;
21979;SDS011;11154;48.558;9.234;2022-09-30T09:49:14;9.27;;;6.07;;
21979;SDS011;11154;48.558;9.234;2022-09-30T09:51:31;6.35;;;5.55;;
21979;SDS011;11154;48.558;9.234;2022-09-30T09:53:42;8.25;;;5.38;;
21979;SDS011;11154;48.558;9.234;2022-09-30T09:55:49;8.07;;;6.40;;
21979;SDS011;11154;48.558;9.234;2022-09-30T09:58:05;6.72;;;5.88;;
21979;SDS011;11154;48.558;9.234;2022-09-30T10:00:10;6.63;;;5.20;;
21979;SDS011;11154;48.558;9.234;2022-09-30T10:02:40;6.68;;;5.18;;
21979;SDS011;11154;48.558;9.234;2022-09-30T10:04:46;7.15;;;4.80;;
21979;SDS011;11154;48.558;9.234;2022-09-30T10:06:51;4.95;;;4.22;;
21979;SDS011;11154;48.558;9.234;2022-09-30T10:08:54;6.20;;;5.03;;
21979;SDS011;11154;48.558;9.234;2022-09-30T10:10:58;8.25;;;4.90;;
21979;SDS011;11154;48.558;9.234;2022-09-30T10:13:02;6.00;;;4.50;;
21979;SDS011;11154;48.558;9.234;2022-09-30T10:15:10;7.07;;;5.25;;
21979;SDS011;11154;48.558;9.234;2022-09-30T10:17:24;6.20;;;4.68;;
21979;SDS011;11154;48.558;9.234;2022-09-30T10:19:28;6.50;;;4.95;;
21979;SDS011;11154;48.558;9.234;2022-09-30T10:21:32;6.50;;;4.70;;
21979;SDS011;11154;48.558;9.234;2022-09-30T10:23:34;8.02;;;4.80;;
21979;SDS011;11154;48.558;9.234;2022-09-30T10:25:38;6.53;;;5.38;;
21979;SDS011;11154;48.558;9.234;2022-09-30T10:27:45;7.28;;;4.93;;
21979;SDS011;11154;48.558;9.234;2022-09-30T10:29:49;7.32;;;4.72;;
21979;SDS011;11154;48.558;9.234;2022-09-30T10:31:51;4.30;;;3.90;;
21979;SDS011;11154;48.558;9.234;2022-09-30T10:33:54;7.10;;;3.60;;
21979;SDS011;11154;48.558;9.234;2022-09-30T10:36:05;4.63;;;2.72;;
21979;SDS011;11154;48.558;9.234;2022-09-30T10:38:10;4.70;;;3.05;;
21979;SDS011;11154;48.558;9.234;2022-09-30T10:40:15;4.25;;;2.85;;
21979;SDS011;11154;48.558;9.234;2022-09-30T10:42:19;4.43;;;3.42;;
21979;SDS011;11154;48.558;9.234;2022-09-30T10:44:23;5.00;;;4.00;;
21979;SDS011;11154;48.558;9.234;2022-09-30T10:46:27;5.03;;;3.90;;
21979;SDS011;11154;48.558;9.234;2022-09-30T10:48:32;5.63;;;4.15;;
21979;SDS011;11154;48.558;9.234;2022-09-30T10:50:36;4.07;;;3.58;;
21979;SDS011;11154;48.558;9.234;2022-09-30T10:52:38;6.13;;;4.85;;
21979;SDS011;11154;48.558;9.234;2022-09-30T10:54:48;4.18;;;3.28;;
21979;SDS011;11154;48.558;9.234;2022-09-30T10:56:52;4.38;;;3.42;;
21979;SDS011;11154;48.558;9.234;2022-09-30T10:58:54;4.38;;;3.70;;
21979;SDS011;11154;48.558;9.234;2022-09-30T11:01:00;6.18;;;3.85;;
21979;SDS011;11154;48.558;9.234;2022-09-30T11:03:09;5.55;;;3.65;;
21979;SDS011;11154;48.558;9.234;2022-09-30T11:05:16;4.50;;;3.92;;
21979;SDS011;11154;48.558;9.234;2022-09-30T11:07:22;6.13;;;4.68;;
21979;SDS011;11154;48.558;9.234;2022-09-30T11:09:32;4.57;;;3.15;;
21979;SDS011;11154;48.558;9.234;2022-09-30T11:11:38;4.40;;;3.58;;
21979;SDS011;11154;48.558;9.234;2022-09-30T11:13:45;4.88;;;3.17;;
21979;SDS011;11154;48.558;9.234;2022-09-30T11:15:55;6.47;;;3.67;;
21979;SDS011;11154;48.558;9.234;2022-09-30T11:18:05;3.65;;;3.10;;
21979;SDS011;11154;48.558;9.234;2022-09-30T11:20:16;4.68;;;3.30;;
21979;SDS011;11154;48.558;9.234;2022-09-30T11:22:27;5.53;;;3.50;;
21979;SDS011;11154;48.558;9.234;2022-09-30T11:24:35;4.03;;;3.28;;
21979;SDS011;11154;48.558;9.234;2022-09-30T11:26:41;4.60;;;3.00;;
21979;SDS011;11154;48.558;9.234;2022-09-30T11:28:53;4.22;;;2.70;;
21979;SDS011;11154;48.558;9.234;2022-09-30T11:31:07;4.72;;;2.90;;
21979;SDS011;11154;48.558;9.234;2022-09-30T11:33:24;3.53;;;2.30;;
21979;SDS011;11154;48.558;9.234;2022-09-30T11:35:41;3.30;;;2.25;;
21979;SDS011;11154;48.558;9.234;2022-09-30T11:37:55;2.80;;;2.10;;
21979;SDS011;11154;48.558;9.234;2022-09-30T11:40:18;3.92;;;2.08;;
21979;SDS011;11154;48.558;9.234;2022-09-30T11:42:36;3.70;;;2.50;;
21979;SDS011;11154;48.558;9.234;2022-09-30T11:44:46;4.38;;;2.80;;
21979;SDS011;11154;48.558;9.234;2022-09-30T11:47:00;4.68;;;2.58;;
21979;SDS011;11154;48.558;9.234;2022-09-30T11:49:23;4.07;;;2.88;;
21979;SDS011;11154;48.558;9.234;2022-09-30T11:51:37;3.10;;;2.53;;
21979;SDS011;11154;48.558;9.234;2022-09-30T11:53:47;4.35;;;2.40;;
21979;SDS011;11154;48.558;9.234;2022-09-30T11:55:57;3.28;;;2.00;;
21979;SDS011;11154;48.558;9.234;2022-09-30T11:58:07;3.35;;;2.08;;
21979;SDS011;11154;48.558;9.234;2022-09-30T12:00:12;2.25;;;1.90;;
21979;SDS011;11154;48.558;9.234;2022-09-30T12:02:19;4.15;;;2.15;;
21979;SDS011;11154;48.558;9.234;2022-09-30T12:04:29;4.88;;;2.45;;
21979;SDS011;11154;48.558;9.234;2022-09-30T12:06:36;3.80;;;2.50;;
21979;SDS011;11154;48.558;9.234;2022-09-30T12:08:43;3.63;;;2.10;;
21979;SDS011;11154;48.558;9.234;2022-09-30T12:10:49;3.83;;;2.17;;
21979;SDS011;11154;48.558;9.234;2022-09-30T12:12:55;3.70;;;2.00;;
21979;SDS011;11154;48.558;9.234;2022-09-30T12:15:02;3.05;;;2.10;;
21979;SDS011;11154;48.558;9.234;2022-09-30T12:17:09;2.75;;;2.08;;
21979;SDS011;11154;48.558;9.234;2022-09-30T12:19:19;3.15;;;2.28;;
21979;SDS011;11154;48.558;9.234;2022-09-30T12:21:30;6.05;;;2.22;;
21979;SDS011;11154;48.558;9.234;2022-09-30T12:23:37;3.47;;;2.15;;
21979;SDS011;11154;48.558;9.234;2022-09-30T12:25:45;3.03;;;2.00;;
21979;SDS011;11154;48.558;9.234;2022-09-30T12:27:51;4.43;;;2.00;;
21979;SDS011;11154;48.558;9.234;2022-09-30T12:29:58;2.65;;;1.75;;
21979;SDS011;11154;48.558;9.234;2022-09-30T12:32:22;3.08;;;1.88;;
21979;SDS011;11154;48.558;9.234;2022-09-30T12:34:40;2.22;;;1.83;;
21979;SDS011;11154;48.558;9.234;2022-09-30T12:36:57;2.55;;;1.67;;
21979;SDS011;11154;48.558;9.234;2022-09-30T12:39:18;2.25;;;1.45;;
21979;SDS011;11154;48.558;9.234;2022-09-30T12:42:04;3.30;;;1.45;;
21979;SDS011;11154;48.558;9.234;2022-09-30T12:46:49;2.97;;;1.40;;